createdAt,value
2018-11-01T00:00:44.825Z,944.34
2018-11-01T00:01:44.723Z,944.39
2018-11-01T00:02:44.647Z,944.36
2018-11-01T00:03:44.528Z,944.27
2018-11-01T00:04:44.434Z,944.27
2018-11-01T00:05:44.339Z,944.26
2018-11-01T00:06:45.058Z,944.26
2018-11-01T00:07:44.160Z,944.19
2018-11-01T00:08:44.041Z,944.26
2018-11-01T00:09:43.941Z,944.17
2018-11-01T00:10:43.847Z,944.18
2018-11-01T00:11:43.745Z,944.26
2018-11-01T00:12:43.668Z,944.21
2018-11-01T00:13:43.550Z,944.06
2018-11-01T00:14:43.456Z,944.08
2018-11-01T00:15:43.352Z,944.16
2018-11-01T00:16:43.256Z,944.08
2018-11-01T00:17:43.173Z,944.04
2018-11-01T00:18:43.064Z,944.03
2018-11-01T00:19:42.963Z,944.20
2018-11-01T00:20:42.863Z,944.23
2018-11-01T00:21:42.765Z,944.05
2018-11-01T00:22:42.684Z,944.25
2018-11-01T00:23:42.575Z,944.15
2018-11-01T00:24:42.470Z,944.05
2018-11-01T00:25:42.371Z,943.98
2018-11-01T00:26:42.277Z,944.04
2018-11-01T00:27:42.196Z,944.17
2018-11-01T00:28:42.081Z,943.93
2018-11-01T00:29:41.980Z,944.11
2018-11-01T00:30:41.884Z,944.20
2018-11-01T00:31:41.785Z,944.03
2018-11-01T00:32:41.704Z,944.23
2018-11-01T00:33:41.588Z,944.05
2018-11-01T00:34:41.492Z,944.19
2018-11-01T00:35:41.397Z,944.19
2018-11-01T00:36:41.295Z,944.10
2018-11-01T00:37:41.214Z,944.14
2018-11-01T00:38:41.100Z,944.17
2018-11-01T00:39:41.001Z,944.12
2018-11-01T00:40:40.929Z,944.11
2018-11-01T00:41:40.804Z,944.24
2018-11-01T00:42:40.724Z,944.09
2018-11-01T00:43:40.605Z,944.13
2018-11-01T00:44:40.628Z,944.07
2018-11-01T00:45:40.411Z,944.17
2018-11-01T00:46:40.316Z,944.03
2018-11-01T00:47:40.239Z,944.13
2018-11-01T00:48:40.125Z,944.16
2018-11-01T00:49:40.024Z,944.16
2018-11-01T00:50:39.928Z,944.18
2018-11-01T00:51:39.825Z,944.24
2018-11-01T00:52:39.750Z,944.28
2018-11-01T00:53:39.630Z,944.31
2018-11-01T00:54:39.530Z,944.29
2018-11-01T00:55:39.435Z,944.29
2018-11-01T00:56:39.337Z,944.28
2018-11-01T00:57:39.255Z,944.32
2018-11-01T00:58:39.234Z,944.31
2018-11-01T00:59:39.043Z,944.36
2018-11-01T01:00:38.943Z,944.32
2018-11-01T01:01:38.847Z,944.33
2018-11-01T01:02:38.781Z,944.31
2018-11-01T01:03:38.655Z,944.34
2018-11-01T01:04:38.568Z,944.35
2018-11-01T01:05:38.576Z,944.34
2018-11-01T01:06:38.357Z,944.32
2018-11-01T01:07:38.276Z,944.27
2018-11-01T01:08:38.159Z,944.25
2018-11-01T01:09:38.066Z,944.19
2018-11-01T01:10:37.969Z,944.12
2018-11-01T01:11:37.865Z,944.10
2018-11-01T01:12:37.883Z,944.10
2018-11-01T01:13:37.677Z,944.06
2018-11-01T01:14:37.572Z,944.12
2018-11-01T01:15:37.476Z,944.11
2018-11-01T01:16:37.378Z,944.09
2018-11-01T01:17:37.297Z,944.07
2018-11-01T01:18:37.182Z,944.09
2018-11-01T01:19:37.184Z,944.08
2018-11-01T01:20:36.984Z,944.14
2018-11-01T01:21:36.888Z,944.14
2018-11-01T01:22:36.793Z,944.20
2018-11-01T01:23:36.709Z,944.10
2018-11-01T01:24:36.598Z,944.11
2018-11-01T01:25:36.495Z,944.09
2018-11-01T01:26:36.496Z,944.11
2018-11-01T01:27:36.309Z,944.16
2018-11-01T01:28:36.223Z,944.17
2018-11-01T01:29:36.100Z,944.16
2018-11-01T01:30:36.009Z,944.16
2018-11-01T01:31:35.914Z,944.16
2018-11-01T01:32:35.813Z,944.10
2018-11-01T01:33:35.815Z,944.08
2018-11-01T01:34:35.625Z,944.08
2018-11-01T01:35:35.521Z,944.02
2018-11-01T01:36:35.421Z,944.06
2018-11-01T01:37:35.325Z,944.05
2018-11-01T01:38:35.243Z,944.02
2018-11-01T01:39:35.128Z,944.00
2018-11-01T01:40:35.128Z,944.02
2018-11-01T01:41:34.928Z,944.03
2018-11-01T01:42:34.838Z,944.00
2018-11-01T01:43:34.750Z,944.00
2018-11-01T01:44:34.639Z,943.97
2018-11-01T01:45:34.539Z,944.04
2018-11-01T01:46:34.441Z,944.08
2018-11-01T01:47:34.436Z,944.10
2018-11-01T01:48:34.268Z,944.15
2018-11-01T01:49:34.145Z,944.16
2018-11-01T01:50:34.101Z,944.18
2018-11-01T01:51:33.952Z,944.17
2018-11-01T01:52:33.853Z,944.14
2018-11-01T01:53:33.776Z,944.15
2018-11-01T01:54:33.756Z,944.19
2018-11-01T01:55:33.555Z,944.14
2018-11-01T01:56:33.461Z,944.15
2018-11-01T01:57:33.365Z,944.18
2018-11-01T01:58:33.281Z,944.19
2018-11-01T01:59:33.166Z,944.17
2018-11-01T02:00:33.068Z,944.12
2018-11-01T02:01:33.084Z,944.18
2018-11-01T02:02:32.871Z,944.07
2018-11-01T02:03:32.788Z,944.07
2018-11-01T02:04:32.675Z,944.06
2018-11-01T02:05:32.575Z,944.01
2018-11-01T02:06:32.479Z,944.02
2018-11-01T02:07:32.386Z,944.08
2018-11-01T02:08:32.299Z,944.07
2018-11-01T02:09:32.184Z,944.13
2018-11-01T02:10:32.088Z,944.03
2018-11-01T02:11:32.006Z,944.08
2018-11-01T02:12:31.891Z,944.11
2018-11-01T02:13:31.811Z,944.02
2018-11-01T02:14:31.696Z,944.08
2018-11-01T02:15:31.595Z,944.06
2018-11-01T02:16:31.502Z,944.00
2018-11-01T02:17:31.399Z,944.04
2018-11-01T02:18:31.317Z,944.03
2018-11-01T02:19:31.202Z,944.04
2018-11-01T02:20:31.108Z,944.06
2018-11-01T02:21:31.010Z,944.00
2018-11-01T02:22:30.910Z,944.07
2018-11-01T02:23:30.828Z,944.01
2018-11-01T02:24:30.717Z,943.98
2018-11-01T02:25:30.622Z,943.87
2018-11-01T02:26:30.520Z,943.80
2018-11-01T02:27:30.421Z,943.84
2018-11-01T02:28:30.340Z,943.92
2018-11-01T02:29:30.227Z,943.81
2018-11-01T02:30:30.127Z,943.82
2018-11-01T02:31:30.064Z,943.69
2018-11-01T02:32:29.933Z,943.64
2018-11-01T02:33:29.852Z,943.63
2018-11-01T02:34:29.733Z,943.62
2018-11-01T02:35:29.641Z,943.68
2018-11-01T02:36:29.539Z,943.72
2018-11-01T02:37:29.445Z,943.74
2018-11-01T02:38:29.445Z,943.67
2018-11-01T02:39:29.244Z,943.61
2018-11-01T02:40:29.148Z,943.72
2018-11-01T02:41:29.048Z,943.71
2018-11-01T02:42:28.962Z,943.70
2018-11-01T02:43:28.870Z,943.64
2018-11-01T02:44:28.760Z,943.69
2018-11-01T02:45:28.659Z,943.79
2018-11-01T02:46:28.565Z,943.75
2018-11-01T02:47:28.463Z,943.71
2018-11-01T02:48:28.379Z,943.81
2018-11-01T02:49:28.264Z,943.79
2018-11-01T02:50:28.174Z,943.72
2018-11-01T02:51:28.068Z,943.67
2018-11-01T02:52:27.971Z,943.65
2018-11-01T02:53:27.890Z,943.58
2018-11-01T02:54:27.775Z,943.52
2018-11-01T02:55:27.682Z,943.51
2018-11-01T02:56:27.582Z,943.54
2018-11-01T02:57:27.481Z,943.49
2018-11-01T02:58:27.402Z,943.56
2018-11-01T02:59:27.286Z,943.51
2018-11-01T03:00:27.191Z,943.58
2018-11-01T03:01:27.093Z,943.63
2018-11-01T03:02:26.991Z,943.50
2018-11-01T03:03:26.907Z,943.53
2018-11-01T03:04:26.797Z,943.50
2018-11-01T03:05:26.697Z,943.48
2018-11-01T03:06:26.602Z,943.49
2018-11-01T03:07:26.503Z,943.45
2018-11-01T03:08:26.409Z,943.45
2018-11-01T03:09:26.321Z,943.53
2018-11-01T03:10:26.320Z,943.48
2018-11-01T03:11:26.112Z,943.57
2018-11-01T03:12:26.016Z,943.56
2018-11-01T03:13:25.916Z,943.45
2018-11-01T03:14:25.833Z,943.41
2018-11-01T03:15:25.719Z,943.43
2018-11-01T03:16:25.617Z,943.36
2018-11-01T03:17:25.520Z,943.32
2018-11-01T03:18:25.425Z,943.38
2018-11-01T03:19:25.340Z,943.35
2018-11-01T03:20:25.229Z,943.29
2018-11-01T03:21:25.161Z,943.31
2018-11-01T03:22:25.032Z,943.37
2018-11-01T03:23:24.934Z,943.32
2018-11-01T03:24:24.851Z,943.44
2018-11-01T03:25:24.738Z,943.33
2018-11-01T03:26:24.732Z,943.39
2018-11-01T03:27:24.540Z,943.40
2018-11-01T03:28:24.448Z,943.32
2018-11-01T03:29:24.360Z,943.38
2018-11-01T03:30:24.245Z,943.33
2018-11-01T03:31:24.246Z,943.32
2018-11-01T03:32:24.061Z,943.28
2018-11-01T03:33:23.981Z,943.27
2018-11-01T03:34:23.869Z,943.34
2018-11-01T03:35:23.756Z,943.37
2018-11-01T03:36:23.659Z,943.40
2018-11-01T03:37:23.557Z,943.47
2018-11-01T03:38:23.619Z,943.38
2018-11-01T03:39:23.392Z,943.42
2018-11-01T03:40:23.264Z,943.41
2018-11-01T03:41:23.165Z,943.47
2018-11-01T03:42:23.074Z,943.47
2018-11-01T03:43:22.977Z,943.39
2018-11-01T03:44:22.890Z,943.43
2018-11-01T03:45:22.875Z,943.44
2018-11-01T03:46:22.682Z,943.36
2018-11-01T03:47:22.582Z,943.38
2018-11-01T03:48:22.487Z,943.37
2018-11-01T03:49:22.400Z,943.37
2018-11-01T03:50:22.285Z,943.38
2018-11-01T03:51:22.184Z,943.32
2018-11-01T03:52:22.200Z,943.27
2018-11-01T03:53:22.059Z,943.28
2018-11-01T03:54:21.920Z,943.25
2018-11-01T03:55:21.798Z,943.22
2018-11-01T03:56:21.697Z,943.23
2018-11-01T03:57:21.598Z,943.22
2018-11-01T03:58:21.515Z,943.21
2018-11-01T03:59:21.526Z,943.12
2018-11-01T04:00:21.310Z,943.11
2018-11-01T04:01:21.204Z,943.06
2018-11-01T04:02:21.112Z,943.07
2018-11-01T04:03:21.009Z,942.99
2018-11-01T04:04:20.930Z,942.98
2018-11-01T04:05:20.833Z,942.96
2018-11-01T04:06:20.810Z,942.99
2018-11-01T04:07:20.626Z,943.06
2018-11-01T04:08:20.520Z,943.10
2018-11-01T04:09:20.435Z,943.11
2018-11-01T04:10:20.321Z,943.20
2018-11-01T04:11:20.223Z,943.22
2018-11-01T04:12:20.131Z,943.22
2018-11-01T04:13:20.191Z,943.19
2018-11-01T04:14:19.946Z,943.29
2018-11-01T04:15:20.029Z,943.28
2018-11-01T04:16:19.734Z,943.32
2018-11-01T04:17:19.640Z,943.29
2018-11-01T04:18:19.540Z,943.22
2018-11-01T04:19:19.458Z,943.29
2018-11-01T04:20:19.442Z,943.25
2018-11-01T04:21:19.246Z,943.19
2018-11-01T04:22:19.144Z,943.16
2018-11-01T04:23:19.096Z,943.16
2018-11-01T04:24:18.968Z,943.17
2018-11-01T04:25:18.850Z,943.11
2018-11-01T04:26:18.736Z,943.04
2018-11-01T04:27:18.755Z,943.01
2018-11-01T04:28:18.538Z,943.05
2018-11-01T04:29:18.453Z,943.02
2018-11-01T04:30:18.340Z,943.14
2018-11-01T04:31:18.245Z,943.13
2018-11-01T04:32:18.166Z,943.08
2018-11-01T04:33:18.105Z,943.14
2018-11-01T04:34:18.069Z,943.17
2018-11-01T04:35:17.871Z,943.17
2018-11-01T04:36:17.759Z,943.21
2018-11-01T04:37:17.653Z,943.27
2018-11-01T04:38:17.553Z,943.20
2018-11-01T04:39:17.472Z,943.34
2018-11-01T04:40:17.484Z,943.36
2018-11-01T04:41:17.260Z,943.22
2018-11-01T04:42:17.158Z,943.23
2018-11-01T04:43:17.085Z,943.17
2018-11-01T04:44:17.001Z,943.16
2018-11-01T04:45:16.903Z,943.18
2018-11-01T04:46:16.781Z,943.15
2018-11-01T04:47:16.682Z,943.21
2018-11-01T04:48:16.683Z,943.23
2018-11-01T04:49:16.488Z,943.24
2018-11-01T04:50:16.374Z,943.13
2018-11-01T04:51:16.278Z,943.13
2018-11-01T04:52:16.177Z,943.16
2018-11-01T04:53:16.076Z,942.95
2018-11-01T04:54:15.985Z,943.00
2018-11-01T04:55:15.898Z,942.96
2018-11-01T04:56:15.780Z,942.97
2018-11-01T04:57:15.681Z,942.99
2018-11-01T04:58:15.586Z,942.89
2018-11-01T04:59:15.505Z,942.90
2018-11-01T05:00:15.389Z,942.86
2018-11-01T05:01:15.287Z,942.78
2018-11-01T05:02:15.190Z,942.81
2018-11-01T05:03:15.092Z,942.84
2018-11-01T05:04:14.994Z,942.81
2018-11-01T05:05:15.000Z,942.77
2018-11-01T05:06:14.802Z,942.69
2018-11-01T05:07:14.697Z,942.91
2018-11-01T05:08:14.596Z,942.76
2018-11-01T05:09:14.925Z,942.86
2018-11-01T05:10:14.420Z,942.84
2018-11-01T05:11:14.305Z,942.78
2018-11-01T05:12:14.205Z,942.74
2018-11-01T05:13:14.106Z,942.75
2018-11-01T05:14:14.008Z,942.84
2018-11-01T05:15:13.958Z,942.72
2018-11-01T05:16:13.809Z,942.80
2018-11-01T05:17:13.719Z,942.71
2018-11-01T05:18:13.613Z,942.70
2018-11-01T05:19:13.513Z,942.90
2018-11-01T05:20:13.437Z,942.71
2018-11-01T05:21:13.320Z,942.74
2018-11-01T05:22:13.223Z,942.81
2018-11-01T05:23:13.122Z,942.75
2018-11-01T05:24:13.025Z,942.78
2018-11-01T05:25:12.943Z,942.84
2018-11-01T05:26:12.826Z,942.77
2018-11-01T05:27:12.727Z,942.75
2018-11-01T05:28:12.627Z,942.80
2018-11-01T05:29:12.540Z,942.78
2018-11-01T05:30:12.448Z,942.69
2018-11-01T05:31:12.340Z,942.67
2018-11-01T05:32:12.238Z,942.70
2018-11-01T05:33:12.136Z,942.63
2018-11-01T05:34:12.055Z,942.64
2018-11-01T05:35:11.967Z,942.73
2018-11-01T05:36:11.842Z,942.83
2018-11-01T05:37:11.745Z,942.60
2018-11-01T05:38:11.647Z,942.74
2018-11-01T05:39:11.547Z,942.58
2018-11-01T05:40:11.468Z,942.60
2018-11-01T05:41:11.347Z,942.62
2018-11-01T05:42:11.262Z,942.64
2018-11-01T05:43:11.153Z,942.77
2018-11-01T05:44:11.096Z,942.69
2018-11-01T05:45:10.972Z,942.82
2018-11-01T05:46:10.861Z,942.65
2018-11-01T05:47:10.759Z,942.71
2018-11-01T05:48:10.661Z,942.65
2018-11-01T05:49:10.562Z,942.64
2018-11-01T05:50:10.480Z,942.47
2018-11-01T05:51:10.365Z,942.63
2018-11-01T05:52:10.266Z,942.56
2018-11-01T05:53:10.168Z,942.46
2018-11-01T05:54:10.072Z,942.52
2018-11-01T05:55:09.989Z,942.53
2018-11-01T05:56:09.880Z,942.51
2018-11-01T05:57:09.773Z,942.53
2018-11-01T05:58:09.675Z,942.47
2018-11-01T05:59:09.582Z,942.59
2018-11-01T06:00:09.495Z,942.53
2018-11-01T06:01:09.382Z,942.71
2018-11-01T06:02:09.299Z,942.78
2018-11-01T06:03:09.197Z,942.73
2018-11-01T06:04:09.137Z,942.66
2018-11-01T06:05:09.004Z,942.66
2018-11-01T06:06:08.889Z,942.66
2018-11-01T06:07:08.793Z,942.63
2018-11-01T06:08:08.695Z,942.53
2018-11-01T06:09:08.593Z,942.57
2018-11-01T06:10:08.512Z,942.46
2018-11-01T06:11:08.456Z,942.49
2018-11-01T06:12:08.408Z,942.53
2018-11-01T06:13:08.204Z,942.56
2018-11-01T06:14:08.104Z,942.55
2018-11-01T06:15:08.021Z,942.56
2018-11-01T06:16:07.907Z,942.47
2018-11-01T06:17:07.809Z,942.50
2018-11-01T06:18:07.710Z,942.55
2018-11-01T06:19:07.719Z,942.49
2018-11-01T06:20:07.529Z,942.40
2018-11-01T06:21:07.413Z,942.37
2018-11-01T06:22:07.317Z,942.49
2018-11-01T06:23:07.221Z,942.47
2018-11-01T06:24:07.125Z,942.47
2018-11-01T06:25:07.040Z,942.60
2018-11-01T06:26:07.027Z,942.60
2018-11-01T06:27:06.827Z,942.65
2018-11-01T06:28:06.728Z,942.57
2018-11-01T06:29:06.632Z,942.61
2018-11-01T06:30:06.550Z,942.60
2018-11-01T06:31:06.438Z,942.47
2018-11-01T06:32:06.340Z,942.45
2018-11-01T06:33:07.116Z,942.43
2018-11-01T06:34:06.143Z,942.41
2018-11-01T06:35:06.061Z,942.47
2018-11-01T06:36:05.948Z,942.44
2018-11-01T06:37:05.848Z,942.47
2018-11-01T06:38:05.751Z,942.52
2018-11-01T06:39:05.651Z,942.49
2018-11-01T06:40:05.662Z,942.44
2018-11-01T06:41:05.525Z,942.38
2018-11-01T06:42:05.356Z,942.41
2018-11-01T06:43:05.263Z,942.45
2018-11-01T06:44:05.161Z,942.48
2018-11-01T06:45:05.085Z,942.40
2018-11-01T06:46:04.965Z,942.37
2018-11-01T06:47:04.975Z,942.44
2018-11-01T06:48:04.772Z,942.34
2018-11-01T06:49:04.675Z,942.40
2018-11-01T06:50:04.577Z,942.43
2018-11-01T06:51:04.494Z,942.29
2018-11-01T06:52:04.378Z,942.22
2018-11-01T06:53:04.284Z,942.20
2018-11-01T06:54:04.291Z,942.19
2018-11-01T06:55:04.091Z,942.09
2018-11-01T06:56:04.009Z,942.21
2018-11-01T06:57:03.892Z,942.18
2018-11-01T06:58:03.798Z,942.21
2018-11-01T06:59:03.792Z,942.30
2018-11-01T07:00:03.605Z,942.35
2018-11-01T07:01:03.637Z,942.39
2018-11-01T07:02:03.405Z,942.34
2018-11-01T07:03:03.312Z,942.28
2018-11-01T07:04:03.215Z,942.24
2018-11-01T07:05:03.120Z,942.32
2018-11-01T07:06:03.043Z,942.46
2018-11-01T07:07:02.927Z,942.35
2018-11-01T07:08:02.936Z,942.34
2018-11-01T07:09:02.734Z,942.40
2018-11-01T07:10:02.636Z,942.39
2018-11-01T07:11:02.557Z,942.41
2018-11-01T07:12:02.445Z,942.34
2018-11-01T07:13:02.349Z,942.36
2018-11-01T07:14:02.252Z,942.33
2018-11-01T07:15:02.268Z,942.27
2018-11-01T07:16:02.079Z,942.28
2018-11-01T07:17:02.038Z,942.27
2018-11-01T07:18:01.874Z,942.27
2018-11-01T07:19:01.780Z,942.36
2018-11-01T07:20:01.686Z,942.36
2018-11-01T07:21:01.608Z,942.36
2018-11-01T07:22:01.613Z,942.40
2018-11-01T07:23:01.398Z,942.29
2018-11-01T07:24:01.305Z,942.38
2018-11-01T07:25:01.213Z,942.34
2018-11-01T07:26:01.158Z,942.34
2018-11-01T07:27:01.029Z,942.48
2018-11-01T07:28:00.928Z,942.54
2018-11-01T07:29:00.837Z,942.53
2018-11-01T07:30:00.741Z,942.56
2018-11-01T07:31:00.665Z,942.56
2018-11-01T07:32:00.557Z,942.64
2018-11-01T07:33:00.492Z,942.59
2018-11-01T07:34:00.370Z,942.64
2018-11-01T07:35:00.280Z,942.66
2018-11-01T07:36:00.306Z,942.62
2018-11-01T07:37:00.092Z,942.70
2018-11-01T07:37:59.998Z,942.68
2018-11-01T07:38:59.905Z,942.58
2018-11-01T07:39:59.870Z,942.56
2018-11-01T07:40:59.735Z,942.54
2018-11-01T07:41:59.752Z,942.57
2018-11-01T07:42:59.532Z,942.54
2018-11-01T07:43:59.445Z,942.59
2018-11-01T07:44:59.353Z,942.43
2018-11-01T07:45:59.277Z,942.47
2018-11-01T07:46:59.169Z,942.53
2018-11-01T07:47:59.072Z,942.49
2018-11-01T07:48:58.979Z,942.53
2018-11-01T07:49:58.889Z,942.40
2018-11-01T07:50:58.812Z,942.42
2018-11-01T07:51:58.703Z,942.50
2018-11-01T07:52:58.716Z,942.56
2018-11-01T07:53:58.521Z,942.58
2018-11-01T07:54:58.427Z,942.58
2018-11-01T07:55:58.348Z,942.52
2018-11-01T07:56:58.241Z,942.63
2018-11-01T07:57:58.147Z,942.64
2018-11-01T07:58:58.056Z,942.65
2018-11-01T07:59:57.959Z,942.72
2018-11-01T08:00:57.884Z,942.74
2018-11-01T08:01:57.774Z,942.69
2018-11-01T08:02:57.679Z,942.68
2018-11-01T08:03:57.588Z,942.73
2018-11-01T08:04:57.494Z,942.66
2018-11-01T08:05:57.522Z,942.58
2018-11-01T08:06:57.309Z,942.58
2018-11-01T08:07:57.214Z,942.58
2018-11-01T08:08:57.121Z,942.56
2018-11-01T08:09:57.023Z,942.57
2018-11-01T08:10:56.958Z,942.57
2018-11-01T08:11:56.837Z,942.61
2018-11-01T08:12:56.764Z,942.56
2018-11-01T08:13:56.654Z,942.57
2018-11-01T08:14:56.558Z,942.59
2018-11-01T08:15:56.478Z,942.55
2018-11-01T08:16:56.372Z,942.42
2018-11-01T08:17:56.280Z,942.45
2018-11-01T08:18:56.185Z,942.34
2018-11-01T08:19:56.245Z,942.35
2018-11-01T08:20:56.232Z,942.25
2018-11-01T08:21:55.902Z,942.23
2018-11-01T08:22:55.828Z,942.18
2018-11-01T08:23:55.715Z,942.22
2018-11-01T08:24:55.616Z,942.30
2018-11-01T08:25:55.539Z,942.34
2018-11-01T08:26:55.431Z,942.35
2018-11-01T08:27:55.370Z,942.29
2018-11-01T08:28:55.248Z,942.27
2018-11-01T08:29:55.148Z,942.26
2018-11-01T08:30:55.058Z,942.33
2018-11-01T08:31:54.975Z,942.31
2018-11-01T08:32:54.914Z,942.37
2018-11-01T08:33:54.773Z,942.47
2018-11-01T08:34:54.673Z,942.52
2018-11-01T08:35:54.582Z,942.52
2018-11-01T08:36:54.506Z,942.55
2018-11-01T08:37:54.389Z,942.60
2018-11-01T08:38:54.298Z,942.54
2018-11-01T08:39:54.204Z,942.54
2018-11-01T08:40:54.112Z,942.38
2018-11-01T08:41:54.039Z,942.36
2018-11-01T08:42:53.919Z,942.28
2018-11-01T08:43:53.824Z,942.28
2018-11-01T08:44:53.835Z,942.09
2018-11-01T08:45:53.641Z,942.23
2018-11-01T08:46:53.563Z,942.29
2018-11-01T08:47:53.443Z,942.23
2018-11-01T08:48:53.348Z,942.35
2018-11-01T08:49:53.269Z,942.42
2018-11-01T08:50:53.163Z,942.34
2018-11-01T08:51:53.179Z,942.32
2018-11-01T08:52:52.972Z,942.24
2018-11-01T08:53:52.875Z,942.28
2018-11-01T08:54:52.785Z,942.29
2018-11-01T08:55:52.724Z,942.37
2018-11-01T08:56:52.611Z,942.35
2018-11-01T08:57:52.499Z,942.33
2018-11-01T08:58:52.506Z,942.48
2018-11-01T08:59:52.310Z,942.38
2018-11-01T09:00:52.219Z,942.34
2018-11-01T09:01:52.147Z,942.34
2018-11-01T09:02:52.026Z,942.26
2018-11-01T09:03:51.931Z,942.34
2018-11-01T09:04:51.835Z,942.28
2018-11-01T09:05:51.845Z,942.23
2018-11-01T09:06:51.666Z,942.26
2018-11-01T09:07:51.605Z,942.31
2018-11-01T09:08:51.455Z,942.13
2018-11-01T09:09:51.364Z,942.04
2018-11-01T09:10:51.305Z,942.06
2018-11-01T09:11:51.191Z,942.23
2018-11-01T09:12:51.262Z,942.10
2018-11-01T09:13:50.985Z,942.13
2018-11-01T09:14:50.889Z,942.07
2018-11-01T09:15:50.797Z,942.07
2018-11-01T09:16:50.720Z,941.96
2018-11-01T09:17:50.603Z,942.03
2018-11-01T09:18:50.513Z,942.04
2018-11-01T09:19:50.522Z,942.02
2018-11-01T09:20:50.318Z,942.03
2018-11-01T09:21:50.242Z,942.07
2018-11-01T09:22:50.131Z,942.07
2018-11-01T09:23:50.036Z,942.05
2018-11-01T09:24:49.940Z,942.03
2018-11-01T09:25:49.844Z,941.99
2018-11-01T09:26:49.836Z,941.96
2018-11-01T09:27:49.657Z,941.94
2018-11-01T09:28:49.566Z,941.94
2018-11-01T09:29:49.463Z,941.85
2018-11-01T09:30:49.380Z,941.90
2018-11-01T09:31:49.291Z,941.87
2018-11-01T09:32:49.213Z,941.85
2018-11-01T09:33:49.192Z,942.00
2018-11-01T09:34:48.987Z,941.95
2018-11-01T09:35:48.953Z,942.02
2018-11-01T09:36:48.815Z,942.09
2018-11-01T09:37:48.701Z,942.01
2018-11-01T09:38:48.611Z,942.11
2018-11-01T09:39:48.513Z,942.32
2018-11-01T09:40:48.420Z,942.17
2018-11-01T09:41:48.335Z,942.15
2018-11-01T09:42:48.227Z,942.19
2018-11-01T09:43:48.129Z,942.16
2018-11-01T09:44:48.032Z,942.16
2018-11-01T09:45:47.983Z,942.27
2018-11-01T09:46:48.213Z,942.15
2018-11-01T09:47:47.945Z,942.18
2018-11-01T09:48:47.653Z,942.16
2018-11-01T09:49:47.560Z,942.13
2018-11-01T09:50:47.460Z,942.18
2018-11-01T09:51:47.384Z,942.07
2018-11-01T09:52:47.272Z,942.17
2018-11-01T09:53:47.177Z,942.14
2018-11-01T09:54:47.078Z,942.21
2018-11-01T09:55:47.124Z,942.18
2018-11-01T09:56:46.906Z,942.17
2018-11-01T09:57:46.791Z,942.16
2018-11-01T09:58:46.697Z,942.09
2018-11-01T09:59:46.605Z,942.13
2018-11-01T10:00:46.504Z,942.12
2018-11-01T10:01:46.429Z,942.13
2018-11-01T10:02:46.316Z,942.07
2018-11-01T10:03:46.224Z,942.12
2018-11-01T10:04:46.121Z,942.11
2018-11-01T10:05:46.032Z,942.12
2018-11-01T10:06:45.994Z,942.15
2018-11-01T10:07:45.839Z,942.03
2018-11-01T10:08:45.746Z,942.03
2018-11-01T10:09:45.649Z,941.98
2018-11-01T10:10:45.552Z,941.96
2018-11-01T10:11:45.461Z,941.83
2018-11-01T10:12:45.397Z,941.81
2018-11-01T10:13:45.267Z,941.77
2018-11-01T10:14:45.172Z,941.75
2018-11-01T10:15:45.223Z,941.78
2018-11-01T10:16:45.164Z,941.70
2018-11-01T10:17:45.411Z,941.70
2018-11-01T10:18:44.790Z,941.67
2018-11-01T10:19:44.695Z,941.73
2018-11-01T10:20:44.600Z,941.76
2018-11-01T10:21:44.513Z,941.66
2018-11-01T10:22:44.532Z,941.55
2018-11-01T10:23:44.311Z,941.50
2018-11-01T10:24:44.217Z,941.62
2018-11-01T10:25:44.122Z,941.57
2018-11-01T10:26:44.030Z,941.65
2018-11-01T10:27:43.989Z,941.57
2018-11-01T10:28:43.836Z,941.48
2018-11-01T10:29:43.737Z,941.53
2018-11-01T10:30:43.643Z,941.56
2018-11-01T10:31:43.559Z,941.62
2018-11-01T10:32:43.470Z,941.71
2018-11-01T10:33:43.411Z,941.64
2018-11-01T10:34:43.262Z,941.58
2018-11-01T10:35:43.168Z,941.64
2018-11-01T10:36:43.070Z,941.60
2018-11-01T10:37:42.992Z,941.64
2018-11-01T10:38:42.877Z,941.68
2018-11-01T10:39:42.782Z,941.59
2018-11-01T10:40:42.717Z,941.60
2018-11-01T10:41:42.608Z,941.58
2018-11-01T10:42:42.520Z,941.58
2018-11-01T10:43:42.403Z,941.55
2018-11-01T10:44:42.308Z,941.54
2018-11-01T10:45:42.210Z,941.55
2018-11-01T10:46:42.111Z,941.55
2018-11-01T10:47:42.113Z,941.54
2018-11-01T10:48:41.922Z,941.47
2018-11-01T10:49:41.833Z,941.53
2018-11-01T10:50:41.731Z,941.49
2018-11-01T10:51:41.638Z,941.54
2018-11-01T10:52:41.562Z,941.53
2018-11-01T10:53:41.451Z,941.61
2018-11-01T10:54:41.349Z,941.66
2018-11-01T10:55:41.255Z,941.62
2018-11-01T10:56:41.160Z,941.61
2018-11-01T10:57:41.078Z,941.63
2018-11-01T10:58:40.967Z,941.56
2018-11-01T10:59:40.879Z,941.53
2018-11-01T11:00:40.887Z,941.53
2018-11-01T11:01:40.684Z,941.51
2018-11-01T11:02:40.605Z,941.42
2018-11-01T11:03:40.496Z,941.39
2018-11-01T11:04:40.397Z,941.38
2018-11-01T11:05:40.298Z,941.38
2018-11-01T11:06:40.284Z,941.32
2018-11-01T11:07:40.126Z,941.39
2018-11-01T11:08:40.018Z,941.44
2018-11-01T11:09:39.920Z,941.33
2018-11-01T11:10:39.825Z,941.36
2018-11-01T11:11:39.847Z,941.29
2018-11-01T11:12:39.647Z,941.28
2018-11-01T11:13:39.538Z,941.31
2018-11-01T11:14:39.560Z,941.25
2018-11-01T11:15:39.353Z,941.26
2018-11-01T11:16:39.251Z,941.27
2018-11-01T11:17:39.175Z,941.26
2018-11-01T11:18:39.215Z,941.09
2018-11-01T11:19:38.968Z,941.24
2018-11-01T11:20:39.165Z,941.03
2018-11-01T11:21:38.779Z,941.05
2018-11-01T11:22:38.694Z,941.01
2018-11-01T11:23:38.584Z,941.11
2018-11-01T11:24:38.488Z,941.00
2018-11-01T11:25:38.496Z,941.07
2018-11-01T11:26:38.295Z,940.97
2018-11-01T11:27:38.220Z,941.01
2018-11-01T11:28:38.109Z,941.03
2018-11-01T11:29:38.015Z,941.00
2018-11-01T11:30:38.009Z,940.98
2018-11-01T11:31:37.833Z,941.02
2018-11-01T11:32:37.862Z,941.05
2018-11-01T11:33:37.630Z,941.15
2018-11-01T11:34:37.534Z,941.15
2018-11-01T11:35:37.479Z,941.07
2018-11-01T11:36:37.343Z,941.03
2018-11-01T11:37:37.267Z,941.06
2018-11-01T11:38:37.156Z,941.03
2018-11-01T11:39:37.205Z,940.94
2018-11-01T11:40:36.959Z,940.85
2018-11-01T11:41:36.862Z,940.71
2018-11-01T11:42:36.787Z,940.83
2018-11-01T11:43:36.676Z,940.78
2018-11-01T11:44:36.576Z,940.79
2018-11-01T11:45:36.483Z,940.70
2018-11-01T11:46:36.497Z,940.71
2018-11-01T11:47:36.311Z,940.72
2018-11-01T11:48:36.196Z,940.68
2018-11-01T11:49:36.098Z,940.62
2018-11-01T11:50:36.004Z,940.55
2018-11-01T11:51:35.984Z,940.48
2018-11-01T11:52:35.827Z,940.48
2018-11-01T11:53:35.822Z,940.37
2018-11-01T11:54:35.621Z,940.43
2018-11-01T11:55:35.530Z,940.38
2018-11-01T11:56:35.429Z,940.42
2018-11-01T11:57:35.352Z,940.31
2018-11-01T11:58:35.240Z,940.26
2018-11-01T11:59:35.142Z,940.30
2018-11-01T12:00:35.149Z,940.33
2018-11-01T12:01:34.950Z,940.33
2018-11-01T12:02:34.935Z,940.34
2018-11-01T12:03:34.780Z,940.39
2018-11-01T12:04:34.668Z,940.29
2018-11-01T12:05:34.696Z,940.24
2018-11-01T12:06:34.474Z,940.19
2018-11-01T12:07:34.486Z,940.15
2018-11-01T12:08:34.295Z,940.21
2018-11-01T12:09:34.187Z,940.28
2018-11-01T12:10:34.112Z,940.24
2018-11-01T12:11:33.996Z,940.29
2018-11-01T12:12:33.902Z,940.28
2018-11-01T12:13:33.828Z,940.23
2018-11-01T12:14:33.817Z,940.27
2018-11-01T12:15:33.611Z,940.34
2018-11-01T12:16:33.515Z,940.33
2018-11-01T12:17:33.421Z,940.45
2018-11-01T12:18:33.343Z,940.39
2018-11-01T12:19:33.228Z,940.33
2018-11-01T12:20:33.131Z,940.30
2018-11-01T12:21:33.163Z,940.44
2018-11-01T12:22:32.986Z,940.39
2018-11-01T12:23:32.862Z,940.49
2018-11-01T12:24:32.754Z,940.57
2018-11-01T12:25:32.657Z,940.59
2018-11-01T12:26:32.563Z,940.60
2018-11-01T12:27:32.467Z,940.63